createdAt,value
2018-11-07T00:00:01.367Z,17.30
2018-11-07T00:02:06.246Z,9.50
2018-11-07T00:04:10.909Z,15.60
2018-11-07T00:06:15.720Z,14.93
2018-11-07T00:08:20.794Z,13.77
2018-11-07T00:10:25.341Z,11.97
2018-11-07T00:12:30.189Z,9.80
2018-11-07T00:14:35.169Z,13.67
2018-11-07T00:16:39.968Z,11.67
2018-11-07T00:18:44.766Z,12.40
2018-11-07T00:20:49.596Z,11.97
2018-11-07T00:22:54.809Z,8.53
2018-11-07T00:24:59.654Z,10.87
2018-11-07T00:27:04.621Z,10.50
2018-11-07T00:29:09.620Z,11.90
2018-11-07T00:31:14.367Z,12.77
2018-11-07T00:35:28.720Z,12.57
2018-11-07T00:37:33.658Z,13.03
2018-11-07T00:39:38.969Z,10.83
2018-11-07T00:41:43.757Z,12.00
2018-11-07T00:43:48.425Z,13.17
2018-11-07T00:45:53.293Z,10.60
2018-11-07T00:47:58.128Z,14.30
2018-11-07T00:50:02.809Z,13.83
2018-11-07T00:52:07.724Z,11.67
2018-11-07T00:54:12.760Z,10.80
2018-11-07T00:56:17.565Z,9.57
2018-11-07T00:58:22.320Z,13.97
2018-11-07T01:00:27.042Z,10.30
2018-11-07T01:02:31.856Z,10.87
2018-11-07T01:04:37.117Z,9.23
2018-11-07T01:06:41.803Z,14.63
2018-11-07T01:08:47.113Z,9.50
2018-11-07T01:10:51.957Z,11.77
2018-11-07T01:12:56.810Z,13.40
2018-11-07T01:15:01.591Z,9.93
2018-11-07T01:17:07.579Z,9.87
2018-11-07T01:19:12.312Z,10.30
2018-11-07T01:21:17.131Z,11.67
2018-11-07T01:23:22.825Z,10.30
2018-11-07T01:25:27.731Z,10.73
2018-11-07T01:27:32.470Z,11.43
2018-11-07T01:29:37.280Z,8.60
2018-11-07T01:31:43.046Z,15.10
2018-11-07T01:33:47.827Z,8.40
2018-11-07T01:35:52.549Z,10.50
2018-11-07T01:37:57.291Z,12.17
2018-11-07T01:40:02.213Z,11.57
2018-11-07T01:42:07.765Z,12.90
2018-11-07T01:44:12.447Z,13.10
2018-11-07T01:46:17.343Z,13.50
2018-11-07T01:48:22.892Z,8.83
2018-11-07T01:50:28.231Z,7.70
2018-11-07T01:52:33.424Z,11.63
2018-11-07T01:54:38.379Z,11.20
2018-11-07T01:56:43.293Z,10.10
2018-11-07T01:58:48.067Z,8.37
2018-11-07T02:00:52.866Z,12.60
2018-11-07T02:02:57.660Z,10.20
2018-11-07T02:05:02.352Z,9.87
2018-11-07T02:07:07.706Z,10.73
2018-11-07T02:09:12.476Z,9.20
2018-11-07T02:11:17.266Z,10.43
2018-11-07T02:13:21.974Z,10.50
2018-11-07T02:15:26.681Z,15.20
2018-11-07T02:17:31.346Z,11.00
2018-11-07T02:19:36.400Z,9.87
2018-11-07T02:21:41.035Z,10.97
2018-11-07T02:23:45.826Z,11.73
2018-11-07T02:25:50.526Z,8.37
2018-11-07T02:27:55.335Z,12.57
2018-11-07T02:30:00.143Z,11.60
2018-11-07T02:32:05.052Z,11.23
2018-11-07T02:34:09.746Z,13.73
2018-11-07T02:36:14.575Z,12.60
2018-11-07T02:38:19.384Z,9.27
2018-11-07T02:40:24.103Z,10.20
2018-11-07T02:42:28.837Z,11.20
2018-11-07T02:44:33.534Z,9.73
2018-11-07T02:46:38.226Z,10.13
2018-11-07T02:48:42.904Z,11.70
2018-11-07T02:50:47.621Z,13.30
2018-11-07T02:52:52.370Z,12.03
2018-11-07T02:54:57.104Z,10.17
2018-11-07T02:57:01.827Z,8.87
2018-11-07T02:59:06.654Z,14.20
2018-11-07T03:01:11.399Z,11.40
2018-11-07T03:03:16.018Z,15.43
2018-11-07T03:05:20.821Z,14.20
2018-11-07T03:07:26.674Z,11.67
2018-11-07T03:09:32.253Z,10.20
2018-11-07T03:11:37.165Z,12.53
2018-11-07T03:13:41.941Z,11.03
2018-11-07T03:15:46.663Z,11.67
2018-11-07T03:17:51.423Z,11.80
2018-11-07T03:19:56.093Z,7.43
2018-11-07T03:22:00.785Z,13.53
2018-11-07T03:24:05.821Z,12.23
2018-11-07T03:26:10.506Z,11.93
2018-11-07T03:28:15.250Z,8.27
2018-11-07T03:30:20.030Z,11.60
2018-11-07T03:32:24.706Z,10.83
2018-11-07T03:34:29.499Z,11.63
2018-11-07T03:36:34.192Z,11.10
2018-11-07T03:38:39.036Z,10.60
2018-11-07T03:40:43.782Z,10.17
2018-11-07T03:42:48.456Z,11.60
2018-11-07T03:44:53.082Z,11.00
2018-11-07T03:46:57.753Z,14.73
2018-11-07T03:49:02.431Z,10.10
2018-11-07T03:51:07.099Z,10.70
2018-11-07T03:53:11.977Z,13.70
2018-11-07T03:55:16.586Z,9.10
2018-11-07T03:57:21.328Z,7.93
2018-11-07T03:59:26.134Z,9.40
2018-11-07T04:01:30.817Z,7.77
2018-11-07T04:03:35.627Z,10.50
2018-11-07T04:05:40.389Z,12.67
2018-11-07T04:07:45.072Z,7.63
2018-11-07T04:09:49.940Z,10.10
2018-11-07T04:11:54.707Z,7.27
2018-11-07T04:13:59.406Z,8.87
2018-11-07T04:16:04.095Z,15.03
2018-11-07T04:18:08.893Z,8.70
2018-11-07T04:20:13.524Z,8.70
2018-11-07T04:22:18.295Z,10.70
2018-11-07T04:24:23.081Z,8.27
2018-11-07T04:26:27.777Z,6.27
2018-11-07T04:28:32.700Z,8.87
2018-11-07T04:30:37.567Z,9.60
2018-11-07T04:32:43.035Z,6.80
2018-11-07T04:34:47.701Z,9.27
2018-11-07T04:36:52.357Z,6.50
2018-11-07T04:38:57.233Z,7.37
2018-11-07T04:41:02.005Z,6.53
2018-11-07T04:43:07.381Z,6.67
2018-11-07T04:45:12.022Z,7.23
2018-11-07T04:47:16.770Z,7.23
2018-11-07T04:49:21.506Z,7.57
2018-11-07T04:51:26.264Z,7.60
2018-11-07T04:53:30.972Z,5.80
2018-11-07T04:55:35.787Z,8.07
2018-11-07T04:57:40.643Z,5.60
2018-11-07T04:59:45.347Z,7.80
2018-11-07T05:01:50.059Z,7.80
2018-11-07T05:03:54.749Z,6.00
2018-11-07T05:05:59.672Z,4.10
2018-11-07T05:08:04.623Z,11.93
2018-11-07T05:10:10.719Z,11.07
2018-11-07T05:12:15.422Z,7.20
2018-11-07T05:14:20.175Z,5.73
2018-11-07T05:16:25.136Z,6.97
2018-11-07T05:18:30.087Z,11.60
2018-11-07T05:20:34.807Z,5.27
2018-11-07T05:22:39.534Z,7.17
2018-11-07T05:24:44.513Z,6.20
2018-11-07T05:26:49.347Z,6.27
2018-11-07T05:28:54.135Z,5.90
2018-11-07T05:30:59.127Z,10.23
2018-11-07T05:33:03.951Z,5.03
2018-11-07T05:35:09.209Z,7.93
2018-11-07T05:37:14.109Z,9.60
2018-11-07T05:39:18.897Z,7.80
2018-11-07T05:41:23.788Z,9.23
2018-11-07T05:43:28.597Z,8.77
2018-11-07T05:45:33.410Z,8.23
2018-11-07T05:47:38.226Z,10.57
2018-11-07T05:49:42.953Z,7.00
2018-11-07T05:51:47.764Z,9.77
2018-11-07T05:53:52.493Z,6.83
2018-11-07T05:55:57.302Z,9.53
2018-11-07T05:58:02.113Z,8.00
2018-11-07T06:00:09.270Z,5.63
2018-11-07T06:02:14.042Z,7.43
2018-11-07T06:04:18.827Z,10.23
2018-11-07T06:06:23.676Z,8.53
2018-11-07T06:08:28.361Z,9.37
2018-11-07T06:10:33.300Z,8.90
2018-11-07T06:12:38.461Z,7.13
2018-11-07T06:14:45.070Z,5.77
2018-11-07T06:16:50.009Z,8.43
2018-11-07T06:18:54.761Z,6.23
2018-11-07T06:20:59.615Z,8.50
2018-11-07T06:23:04.463Z,4.40
2018-11-07T06:25:09.280Z,6.77
2018-11-07T06:27:14.015Z,7.63
2018-11-07T06:29:18.804Z,4.50
2018-11-07T06:31:23.550Z,8.03
2018-11-07T06:33:28.461Z,6.03
2018-11-07T06:35:33.273Z,7.53
2018-11-07T06:37:38.060Z,5.07
2018-11-07T06:39:42.899Z,6.23
2018-11-07T06:41:47.683Z,5.30
2018-11-07T06:43:52.463Z,8.80
2018-11-07T06:45:57.198Z,6.10
2018-11-07T06:48:02.043Z,6.10
2018-11-07T06:50:11.863Z,4.80
2018-11-07T06:52:16.571Z,5.57
2018-11-07T06:54:21.329Z,5.80
2018-11-07T06:56:26.342Z,3.57
2018-11-07T06:58:31.114Z,9.67
2018-11-07T07:00:36.442Z,4.23
2018-11-07T07:02:41.133Z,5.40
2018-11-07T07:04:45.882Z,5.77
2018-11-07T07:06:50.589Z,7.63
2018-11-07T07:08:55.363Z,6.70
2018-11-07T07:11:00.090Z,7.80
2018-11-07T07:13:05.084Z,6.13
2018-11-07T07:15:12.865Z,5.43
2018-11-07T07:17:17.659Z,8.83
2018-11-07T07:19:22.322Z,4.73
2018-11-07T07:21:27.195Z,6.03
2018-11-07T07:23:31.882Z,7.10
2018-11-07T07:25:36.658Z,5.60
2018-11-07T07:27:42.954Z,6.83
2018-11-07T07:29:47.624Z,6.20
2018-11-07T07:31:52.457Z,16.73
2018-11-07T07:33:57.194Z,5.23
2018-11-07T07:36:01.858Z,9.83
2018-11-07T07:38:07.108Z,4.93
2018-11-07T07:40:13.580Z,4.73
2018-11-07T07:42:18.299Z,3.03
2018-11-07T07:44:23.062Z,7.23
2018-11-07T07:46:28.006Z,6.87
2018-11-07T07:48:32.786Z,7.00
2018-11-07T07:50:37.547Z,7.10
2018-11-07T07:52:43.331Z,4.70
2018-11-07T07:54:48.078Z,12.20
2018-11-07T07:56:52.895Z,5.00
2018-11-07T07:58:57.694Z,2.80
2018-11-07T08:01:02.369Z,5.47
2018-11-07T08:03:07.237Z,3.93
2018-11-07T08:05:12.042Z,7.80
2018-11-07T08:07:16.784Z,6.27
2018-11-07T08:09:21.508Z,5.20
2018-11-07T08:11:26.189Z,6.00
2018-11-07T08:13:31.048Z,4.70
2018-11-07T08:15:36.003Z,4.60
2018-11-07T08:17:41.768Z,3.77
2018-11-07T08:19:46.417Z,7.27
2018-11-07T08:21:51.258Z,5.70
2018-11-07T08:23:56.262Z,4.33
2018-11-07T08:26:01.396Z,3.47
2018-11-07T08:28:06.468Z,4.70
2018-11-07T08:30:18.585Z,3.00
2018-11-07T08:32:23.165Z,8.10
2018-11-07T08:34:27.927Z,6.83
2018-11-07T08:36:32.710Z,3.27
2018-11-07T08:38:37.594Z,4.27
2018-11-07T08:40:42.394Z,3.90
2018-11-07T08:42:47.406Z,3.93
2018-11-07T08:44:52.178Z,4.13
2018-11-07T08:46:56.902Z,4.13
2018-11-07T08:49:01.578Z,6.53
2018-11-07T08:51:06.597Z,2.73
2018-11-07T08:53:11.630Z,5.83
2018-11-07T08:55:17.954Z,4.90
2018-11-07T08:57:22.778Z,7.60
2018-11-07T08:59:27.484Z,3.33
2018-11-07T09:01:32.393Z,6.07
2018-11-07T09:03:37.228Z,6.33
2018-11-07T09:05:42.047Z,7.60
2018-11-07T09:07:47.340Z,2.33
2018-11-07T09:09:52.471Z,2.90
2018-11-07T09:11:57.184Z,1.47
2018-11-07T09:14:01.921Z,1.50
2018-11-07T09:16:06.899Z,2.90
2018-11-07T09:18:11.811Z,2.17
2018-11-07T09:20:23.810Z,1.27
2018-11-07T09:22:28.633Z,1.90
2018-11-07T09:24:33.444Z,2.83
2018-11-07T09:26:38.780Z,4.20
2018-11-07T09:28:43.475Z,2.20
2018-11-07T09:30:48.134Z,5.60
2018-11-07T09:32:52.953Z,4.77
2018-11-07T09:34:57.988Z,7.23
2018-11-07T09:37:02.958Z,2.77
2018-11-07T09:39:10.027Z,2.70
2018-11-07T09:41:14.859Z,3.87
2018-11-07T09:43:19.531Z,3.97
2018-11-07T09:45:25.621Z,5.10
2018-11-07T09:47:30.461Z,1.87
2018-11-07T09:49:35.115Z,5.27
2018-11-07T09:51:39.794Z,1.87
2018-11-07T09:53:44.578Z,5.37
2018-11-07T09:55:49.871Z,3.00
2018-11-07T09:57:54.880Z,3.10
2018-11-07T09:59:59.992Z,1.93
2018-11-07T10:02:04.939Z,2.63
2018-11-07T10:04:09.624Z,3.57
2018-11-07T10:06:14.343Z,2.20
2018-11-07T10:08:19.201Z,9.57
2018-11-07T10:10:23.963Z,3.00
2018-11-07T10:12:29.474Z,3.57
2018-11-07T10:14:34.250Z,3.50
2018-11-07T10:16:38.948Z,4.70
2018-11-07T10:18:43.710Z,4.60
2018-11-07T10:20:48.596Z,2.23
2018-11-07T10:22:53.372Z,7.60
2018-11-07T10:24:58.182Z,2.57
2018-11-07T10:27:03.090Z,5.20
2018-11-07T10:29:07.983Z,4.33
2018-11-07T10:31:12.483Z,2.73
2018-11-07T10:33:17.279Z,5.47
2018-11-07T10:35:21.974Z,3.10
2018-11-07T10:37:32.367Z,2.90
2018-11-07T10:39:31.571Z,2.60
2018-11-07T10:41:36.455Z,7.13
2018-11-07T10:43:41.278Z,3.00
2018-11-07T10:45:46.146Z,3.03
2018-11-07T10:47:51.450Z,3.13
2018-11-07T10:49:56.192Z,1.33
2018-11-07T10:52:00.937Z,2.20
2018-11-07T10:54:05.767Z,2.43
2018-11-07T10:56:10.518Z,5.03
2018-11-07T10:58:15.278Z,1.10
2018-11-07T11:00:25.094Z,1.10
2018-11-07T11:02:34.924Z,2.30
2018-11-07T11:04:39.657Z,1.23
2018-11-07T11:06:44.367Z,1.30
2018-11-07T11:08:49.171Z,2.70
2018-11-07T11:10:54.098Z,2.60
2018-11-07T11:12:58.832Z,3.90
2018-11-07T11:15:03.700Z,1.20
2018-11-07T11:17:08.673Z,1.93
2018-11-07T11:19:13.421Z,3.07
2018-11-07T11:21:18.179Z,1.20
2018-11-07T11:23:23.071Z,2.30
2018-11-07T11:25:28.025Z,3.87
2018-11-07T11:27:33.212Z,2.73
2018-11-07T11:29:38.488Z,1.00
2018-11-07T11:31:43.332Z,1.53
2018-11-07T11:33:48.417Z,1.83
2018-11-07T11:35:53.397Z,1.67
2018-11-07T11:37:58.328Z,1.97
2018-11-07T11:40:03.260Z,4.13
2018-11-07T11:42:08.195Z,13.43
2018-11-07T11:44:13.035Z,4.07
2018-11-07T11:46:17.881Z,5.90
2018-11-07T11:48:22.760Z,2.40
2018-11-07T11:50:27.647Z,6.03
2018-11-07T11:52:32.434Z,3.23
2018-11-07T11:54:37.293Z,1.60
2018-11-07T11:56:42.185Z,2.00
2018-11-07T11:58:47.090Z,1.23
2018-11-07T12:00:51.881Z,3.10
2018-11-07T12:02:56.757Z,4.10
2018-11-07T12:05:01.545Z,1.70
2018-11-07T12:07:06.483Z,1.30
2018-11-07T12:09:11.726Z,3.20
2018-11-07T12:11:16.481Z,5.60
2018-11-07T12:13:21.286Z,1.20
2018-11-07T12:15:27.393Z,2.00
2018-11-07T12:17:32.333Z,2.37
2018-11-07T12:19:37.065Z,3.37
2018-11-07T12:21:41.985Z,2.37
2018-11-07T12:23:46.826Z,1.83
2018-11-07T12:25:51.713Z,6.37
2018-11-07T12:27:56.751Z,1.43
2018-11-07T12:30:01.610Z,2.60
2018-11-07T12:32:06.476Z,3.70
2018-11-07T12:34:11.306Z,1.50
2018-11-07T12:36:16.358Z,1.90
2018-11-07T12:38:21.316Z,1.73
2018-11-07T12:40:25.993Z,0.80
2018-11-07T12:42:30.822Z,2.33
2018-11-07T12:44:35.639Z,2.07
2018-11-07T12:46:40.391Z,1.60
2018-11-07T12:48:45.447Z,2.50
2018-11-07T12:50:50.534Z,1.00
2018-11-07T12:52:55.306Z,3.97
2018-11-07T12:55:00.090Z,2.20
2018-11-07T12:57:05.022Z,1.03
2018-11-07T12:59:09.775Z,2.30
2018-11-07T13:01:14.575Z,1.77
2018-11-07T13:03:19.396Z,2.00
2018-11-07T13:05:25.194Z,1.37
2018-11-07T13:07:29.971Z,3.13
2018-11-07T13:09:35.031Z,5.07
2018-11-07T13:11:40.796Z,1.33
2018-11-07T13:13:45.525Z,1.60
2018-11-07T13:15:50.402Z,1.40
2018-11-07T13:17:55.203Z,2.73
2018-11-07T13:19:59.923Z,2.30
2018-11-07T13:22:05.057Z,3.07
2018-11-07T13:24:09.975Z,2.77
2018-11-07T13:26:14.808Z,2.33
2018-11-07T13:28:19.896Z,8.30
2018-11-07T13:30:24.774Z,2.30
2018-11-07T13:32:29.578Z,2.50
2018-11-07T13:34:34.538Z,3.10
2018-11-07T13:36:39.726Z,1.67
2018-11-07T13:38:45.122Z,2.93
2018-11-07T13:40:49.602Z,3.40
2018-11-07T13:42:54.311Z,1.60
2018-11-07T13:44:59.059Z,5.80
2018-11-07T13:47:03.815Z,6.80
2018-11-07T13:49:08.901Z,10.23
2018-11-07T13:51:13.674Z,2.40
2018-11-07T13:53:18.639Z,1.73
2018-11-07T13:55:23.425Z,2.90
2018-11-07T13:57:28.196Z,2.60
2018-11-07T13:59:33.060Z,5.97
2018-11-07T14:01:37.870Z,2.93
2018-11-07T14:03:42.532Z,2.87
2018-11-07T14:05:47.658Z,5.53
2018-11-07T14:07:53.227Z,2.40
2018-11-07T14:09:58.154Z,4.63
2018-11-07T14:12:03.055Z,3.03
2018-11-07T14:14:08.245Z,3.43
2018-11-07T14:16:13.104Z,1.63
2018-11-07T14:18:17.969Z,4.60
2018-11-07T14:20:22.924Z,1.67
2018-11-07T14:22:27.682Z,6.20
2018-11-07T14:24:32.464Z,5.07
2018-11-07T14:26:37.399Z,2.43
2018-11-07T14:28:42.423Z,1.67
2018-11-07T14:30:47.405Z,2.90
2018-11-07T14:32:58.705Z,3.53
2018-11-07T14:35:03.388Z,5.23
2018-11-07T14:37:08.216Z,6.73
2018-11-07T14:39:13.004Z,3.93
2018-11-07T14:41:17.780Z,2.90
2018-11-07T14:43:28.997Z,7.40
2018-11-07T14:45:34.276Z,5.03
2018-11-07T14:47:39.757Z,3.87
2018-11-07T14:49:45.542Z,3.10
2018-11-07T14:51:50.595Z,3.93
2018-11-07T14:53:56.181Z,2.80
2018-11-07T14:56:01.146Z,2.20
2018-11-07T14:58:06.178Z,4.97
2018-11-07T15:00:13.627Z,1.43
2018-11-07T15:02:18.411Z,3.63
2018-11-07T15:04:23.644Z,2.17
2018-11-07T15:06:29.165Z,1.27
2018-11-07T15:08:34.232Z,3.17
2018-11-07T15:10:38.976Z,1.90
2018-11-07T15:12:44.233Z,1.80
2018-11-07T15:14:48.985Z,2.10
2018-11-07T15:16:54.731Z,2.60
2018-11-07T15:18:59.505Z,4.40
2018-11-07T15:21:04.269Z,2.10
2018-11-07T15:23:09.146Z,2.50
2018-11-07T15:25:14.993Z,2.30
2018-11-07T15:27:19.962Z,1.63
2018-11-07T15:29:25.168Z,1.63
2018-11-07T15:31:30.024Z,1.57
2018-11-07T15:33:35.116Z,3.23
2018-11-07T15:35:39.861Z,3.43
2018-11-07T15:37:44.670Z,2.60
2018-11-07T15:39:49.384Z,4.07
2018-11-07T15:41:54.279Z,2.93
2018-11-07T15:43:59.030Z,3.30
2018-11-07T15:46:03.966Z,2.77
2018-11-07T15:48:08.645Z,3.47
2018-11-07T15:50:18.612Z,3.00
2018-11-07T15:52:23.539Z,2.50
2018-11-07T15:54:28.393Z,2.40
2018-11-07T15:56:33.371Z,2.43
2018-11-07T15:58:38.405Z,7.43
2018-11-07T16:00:43.195Z,3.97
2018-11-07T16:02:47.952Z,1.73
2018-11-07T16:04:54.870Z,4.57
2018-11-07T16:06:59.614Z,5.70
2018-11-07T16:09:04.914Z,5.73
2018-11-07T16:11:09.801Z,3.80
2018-11-07T16:13:15.107Z,19.50
2018-11-07T16:15:19.996Z,3.70
2018-11-07T16:17:24.996Z,5.87
2018-11-07T16:19:30.125Z,9.50
2018-11-07T16:21:35.192Z,7.13
2018-11-07T16:23:40.001Z,2.13
2018-11-07T16:25:44.833Z,3.00
2018-11-07T16:27:49.623Z,8.40
2018-11-07T16:29:54.752Z,2.10
2018-11-07T16:31:59.498Z,5.40
2018-11-07T16:34:04.380Z,6.00
2018-11-07T16:36:09.417Z,4.60
2018-11-07T16:38:14.480Z,3.07
2018-11-07T16:40:20.355Z,1.80
2018-11-07T16:42:25.272Z,6.07
2018-11-07T16:44:30.223Z,2.07
2018-11-07T16:46:35.156Z,4.23
2018-11-07T16:48:40.173Z,1.30
2018-11-07T16:50:45.182Z,4.00
2018-11-07T16:52:50.093Z,2.80
2018-11-07T16:54:55.064Z,2.97
2018-11-07T16:57:00.136Z,2.50
2018-11-07T16:59:05.436Z,4.00
2018-11-07T17:01:10.831Z,6.80
2018-11-07T17:03:15.787Z,2.47
2018-11-07T17:05:22.263Z,2.17
2018-11-07T17:07:27.176Z,1.63
2018-11-07T17:09:32.207Z,9.77
2018-11-07T17:11:37.297Z,8.57
2018-11-07T17:13:42.194Z,7.43
2018-11-07T17:15:47.479Z,6.47
2018-11-07T17:17:52.324Z,5.73
2018-11-07T17:19:57.241Z,2.93
2018-11-07T17:22:02.013Z,8.10
2018-11-07T17:24:07.123Z,5.30
2018-11-07T17:26:11.702Z,4.07
2018-11-07T17:28:16.474Z,5.70
2018-11-07T17:30:21.325Z,2.60
2018-11-07T17:32:26.061Z,7.30
2018-11-07T17:34:30.793Z,7.27
2018-11-07T17:36:35.659Z,4.47
2018-11-07T17:38:40.693Z,3.60
2018-11-07T17:40:45.399Z,3.93
2018-11-07T17:42:51.220Z,2.57
2018-11-07T17:44:56.780Z,3.07
2018-11-07T17:47:02.298Z,2.87
2018-11-07T17:49:07.070Z,1.67
2018-11-07T17:51:11.969Z,2.33
2018-11-07T17:53:16.841Z,3.07
2018-11-07T17:55:22.348Z,1.10
2018-11-07T17:57:27.163Z,6.10
2018-11-07T17:59:32.942Z,3.10
2018-11-07T18:01:37.797Z,2.90
2018-11-07T18:03:43.020Z,2.03
2018-11-07T18:05:47.829Z,1.27
2018-11-07T18:07:52.777Z,1.50
2018-11-07T18:09:57.742Z,1.90
2018-11-07T18:12:08.223Z,2.60
2018-11-07T18:14:13.330Z,4.10
2018-11-07T18:16:18.703Z,2.87
2018-11-07T18:18:23.950Z,1.77
2018-11-07T18:20:28.907Z,1.60
2018-11-07T18:22:34.416Z,5.13
2018-11-07T18:24:39.335Z,1.20
2018-11-07T18:26:44.270Z,6.93
2018-11-07T18:28:49.978Z,1.53
2018-11-07T18:30:55.932Z,2.07
2018-11-07T18:33:00.773Z,1.50
2018-11-07T18:35:12.683Z,3.20
2018-11-07T18:37:17.998Z,1.50
2018-11-07T18:39:24.550Z,1.37
2018-11-07T18:41:29.825Z,6.60
2018-11-07T18:43:34.945Z,3.17
2018-11-07T18:47:57.058Z,3.07
2018-11-07T18:50:02.371Z,2.60
2018-11-07T18:52:07.306Z,1.60
2018-11-07T18:54:12.393Z,1.30
2018-11-07T18:56:17.391Z,3.47
2018-11-07T18:58:22.940Z,3.97
2018-11-07T19:00:27.886Z,3.27
2018-11-07T19:02:33.003Z,1.83
2018-11-07T19:04:38.141Z,3.07
2018-11-07T19:06:43.567Z,3.00
2018-11-07T19:08:48.433Z,1.60
2018-11-07T19:10:53.329Z,2.53
2018-11-07T19:12:58.385Z,1.83
2018-11-07T19:15:03.338Z,2.20
2018-11-07T19:17:09.678Z,3.10
2018-11-07T19:19:17.583Z,4.00
2018-11-07T19:21:24.047Z,4.87
2018-11-07T19:23:30.336Z,3.27
2018-11-07T19:25:35.552Z,4.20
2018-11-07T19:27:41.707Z,3.10
2018-11-07T19:29:48.419Z,4.07
2018-11-07T19:31:56.303Z,4.57
2018-11-07T19:34:02.364Z,2.30
2018-11-07T19:36:12.229Z,3.93
2018-11-07T19:40:42.141Z,2.37
2018-11-07T19:42:50.005Z,2.77
2018-11-07T19:44:56.892Z,3.40
2018-11-07T19:49:24.627Z,2.40
2018-11-07T19:51:36.942Z,5.97
2018-11-07T19:53:47.292Z,2.50
2018-11-07T19:55:58.361Z,5.10
2018-11-07T19:58:19.512Z,14.10
2018-11-07T20:00:33.373Z,2.50
2018-11-07T20:02:41.363Z,2.70
2018-11-07T20:04:52.505Z,3.40
2018-11-07T20:07:02.301Z,5.33
2018-11-07T20:09:13.565Z,2.70
2018-11-07T20:11:21.026Z,1.83
2018-11-07T20:13:27.823Z,2.37
2018-11-07T20:15:38.620Z,5.10
2018-11-07T20:17:47.139Z,3.30
2018-11-07T20:19:54.605Z,5.27
2018-11-07T20:22:03.391Z,3.70
2018-11-07T20:24:11.027Z,3.70
2018-11-07T20:26:16.980Z,5.17
2018-11-07T20:28:23.401Z,3.80
2018-11-07T20:30:29.986Z,4.93
2018-11-07T20:32:35.977Z,3.30
2018-11-07T20:34:42.561Z,1.60
2018-11-07T20:36:47.750Z,3.83
2018-11-07T20:38:59.096Z,1.67
2018-11-07T20:41:08.589Z,2.60
2018-11-07T20:43:14.672Z,3.17
2018-11-07T20:45:21.604Z,6.03
2018-11-07T20:47:30.161Z,3.17
2018-11-07T20:49:36.924Z,3.07
2018-11-07T20:51:44.154Z,4.40
2018-11-07T20:53:54.238Z,2.43
2018-11-07T20:56:03.592Z,3.77
2018-11-07T20:58:13.317Z,2.33
2018-11-07T21:00:26.992Z,5.03
2018-11-07T21:02:33.738Z,2.50
2018-11-07T21:04:41.312Z,4.73
2018-11-07T21:06:49.409Z,2.30
2018-11-07T21:08:56.909Z,2.10
2018-11-07T21:11:09.280Z,2.47
2018-11-07T21:13:17.940Z,3.20
2018-11-07T21:15:26.579Z,2.17
2018-11-07T21:17:35.113Z,3.50
2018-11-07T21:19:41.422Z,4.30
2018-11-07T21:21:50.368Z,1.97
2018-11-07T21:23:59.046Z,1.70
2018-11-07T21:26:05.268Z,4.70
2018-11-07T21:28:10.655Z,3.53
2018-11-07T21:30:16.486Z,4.23
2018-11-07T21:32:22.700Z,2.33
2018-11-07T21:34:28.275Z,2.80
2018-11-07T21:36:39.154Z,4.50
2018-11-07T21:38:49.065Z,2.90
2018-11-07T21:40:54.675Z,2.40
2018-11-07T21:43:00.240Z,3.17
2018-11-07T21:45:05.993Z,1.90
2018-11-07T21:47:11.959Z,1.70
2018-11-07T21:49:18.333Z,1.50
2018-11-07T21:51:27.648Z,3.27
2018-11-07T21:53:32.866Z,1.30
2018-11-07T21:55:37.766Z,1.63
2018-11-07T21:57:42.662Z,3.10
2018-11-07T21:59:47.453Z,1.30
2018-11-07T22:01:52.224Z,1.40
2018-11-07T22:03:57.053Z,3.30
2018-11-07T22:06:01.907Z,2.17
2018-11-07T22:08:06.966Z,2.13
2018-11-07T22:10:12.795Z,4.00
2018-11-07T22:12:17.584Z,3.40
2018-11-07T22:14:22.528Z,1.67
2018-11-07T22:16:27.382Z,2.10
2018-11-07T22:18:32.161Z,1.83
2018-11-07T22:20:36.982Z,2.33
2018-11-07T22:22:41.961Z,5.33
2018-11-07T22:24:46.718Z,2.07
2018-11-07T22:26:51.721Z,3.53
2018-11-07T22:28:56.483Z,2.50
2018-11-07T22:31:01.436Z,3.60
2018-11-07T22:33:06.308Z,11.40
2018-11-07T22:35:14.484Z,2.63
2018-11-07T22:37:19.497Z,3.20
2018-11-07T22:39:24.282Z,3.20
2018-11-07T22:41:29.121Z,5.33
2018-11-07T22:43:34.211Z,5.50
2018-11-07T22:45:39.330Z,6.27
2018-11-07T22:47:44.186Z,4.53
2018-11-07T22:49:49.118Z,8.53
2018-11-07T22:51:53.839Z,2.40
2018-11-07T22:53:58.790Z,7.70
2018-11-07T22:56:03.708Z,2.40
2018-11-07T22:58:08.495Z,3.97
2018-11-07T23:00:22.043Z,3.10
2018-11-07T23:02:27.487Z,3.47
2018-11-07T23:04:32.434Z,3.27
2018-11-07T23:06:38.162Z,3.00
2018-11-07T23:08:43.117Z,1.63
2018-11-07T23:10:47.858Z,4.27
2018-11-07T23:12:52.636Z,1.83
2018-11-07T23:14:57.545Z,4.70
2018-11-07T23:17:02.325Z,1.80
2018-11-07T23:19:08.342Z,1.90
2018-11-07T23:21:13.533Z,8.30
2018-11-07T23:23:20.145Z,1.53
2018-11-07T23:25:25.209Z,1.73
2018-11-07T23:27:32.832Z,4.53
2018-11-07T23:29:38.117Z,1.60
2018-11-07T23:31:43.760Z,4.40
2018-11-07T23:33:48.829Z,1.50
2018-11-07T23:35:54.422Z,3.10
2018-11-07T23:37:59.382Z,2.53
2018-11-07T23:40:04.370Z,4.10
2018-11-07T23:42:09.242Z,2.87
2018-11-07T23:44:14.189Z,2.60
2018-11-07T23:46:19.232Z,4.40
2018-11-07T23:48:24.161Z,2.30
2018-11-07T23:50:29.076Z,3.73
2018-11-07T23:52:38.949Z,4.13
2018-11-07T23:54:43.915Z,2.40
2018-11-07T23:56:49.084Z,5.67
2018-11-07T23:58:53.993Z,6.07
